Bonaire, Bonaire

1:53 PM AST on August 29, 2015 (GMT -0400)
Den Chefi | | Change Station
CLOSE
Current Station
Personal Weather Station
Location: Caribbean Netherlands,
Elevation: 7 ft
Nearby Weather Stations

Elev 7 ft 12.15 °N, 68.27 °W | Updated 6 seconds ago

Scattered Clouds
Scattered Clouds
89.1 °F
Feels Like 103 °F
N
8.7
Wind Variable Wind from East
Gusts 12.3 mph

Today
High -- | Low -- °F
--% Chance of Precip.
Yesterday
High -- | Low -- °F
Precip. -- in
6:22 AM 6:45 PM
Full, 100% visible
Pressure 29.92 in
Visibility 6.2 miles
Clouds Scattered Clouds 2500 ft
Heat Index 103 °F
Dew Point 78 °F
Humidity 70%
Rainfall 0.00 in
Snow Depth Not available.
UV 4.0 out of 12
Pollen Not available.
Air Quality Not available.
Flu Activity Not available.
METAR TNCC 291700Z 10014KT 9999 SCT025 32/24 Q1013 NOSIG
Pressure 29.92 in
Visibility 6.2 miles
Clouds Scattered Clouds 2500 ft
Heat Index 103 °F
Dew Point 78 °F
Humidity 70%
Rainfall 0.00 in
Snow Depth Not available.
UV 4.0 out of 12
Pollen Not available.
Air Quality Not available.
Flu Activity Not available.
METAR TNCC 291700Z 10014KT 9999 SCT025 32/24 Q1013 NOSIG

10-Day Weather Forecast

×

Almanac

Astronomy

Aug. 29, 2015 Rise Set
Actual Time
Civil Twilight
Nautical Twilight
Astronomical Twilight
Moon
Length of Visible Light
Length of Day
Tomorrow will be .
, % of the Moon is Illuminated

Today's Extremes

Country Highs Country Lows

Community

WunderPhotos

Upload Photos

1,850,743 photos uploaded!

WunderBlogs® & News

Nearby

Air Quality

  Air Quality AQ Index Pollutant
Not available.

Snow Depth

Station Depth Elevation

Earthquake Activity

City Distance Mag. Time & Date
Minimum magnitude displayed is 2.5.

Coastal Water Temperatures

Place Temperature

Stations

Nearby Weather Stations

Station Location Temp. Windchill Dew Point Humidity Wind Precip. Elev Updated Type